Airport ID:KRTS
Update Time (UTC):26/05/2018 21:15
Wind Speed (Knots):10
Wind Direction (Magnetic):280
Temperature (°C):10
Dew Point (°C):5
Humidity (%):70
Altimeter (inHg):30.05
Density Altitude (Feet):
Visibility (Miles):10+
Clouds (Hundreds of feet):BKN025 OVC034
Present Weather:
METAR:METAR KRTS 262110Z AUTO 30008KT 10SM BKN026 OVC033 10/05 A3005 RMK AO2

The data displayed is for advisory purposes only and is not to be used for flight planning or operations.

This page is not automatically refreshed. Reload the page to see current data.